createdAt,value
2022-11-30T00:01:18.940Z,8.00
2022-11-30T00:03:46.427Z,13.33
2022-11-30T00:06:16.058Z,7.00
2022-11-30T00:08:43.430Z,11.00
2022-11-30T00:11:16.370Z,11.00
2022-11-30T00:13:43.301Z,8.33
2022-11-30T00:16:10.481Z,14.33
2022-11-30T00:18:38.135Z,12.67
2022-11-30T00:21:09.031Z,17.33
2022-11-30T00:23:38.887Z,12.00
2022-11-30T00:26:09.010Z,12.00
2022-11-30T00:28:38.060Z,15.00
2022-11-30T00:31:08.299Z,7.67
2022-11-30T00:33:37.715Z,7.00
2022-11-30T00:36:07.674Z,12.00
2022-11-30T00:38:34.754Z,15.00
2022-11-30T00:41:02.163Z,15.33
2022-11-30T00:43:29.537Z,13.33
2022-11-30T00:45:57.866Z,14.33
2022-11-30T00:48:25.182Z,14.33
2022-11-30T00:50:52.428Z,15.00
2022-11-30T00:53:20.315Z,17.00
2022-11-30T00:55:48.317Z,15.00
2022-11-30T04:57:31.369Z,15.00
2022-11-30T04:59:58.365Z,14.33
2022-11-30T05:02:25.240Z,18.00
2022-11-30T05:04:52.227Z,17.67
2022-11-30T05:07:19.234Z,21.33
2022-11-30T05:10:03.182Z,11.67
2022-11-30T05:12:59.473Z,13.33
2022-11-30T05:15:42.345Z,11.00
2022-11-30T05:18:32.624Z,11.67
2022-11-30T05:21:17.606Z,6.33
2022-11-30T05:24:04.627Z,17.00
2022-11-30T05:27:06.465Z,12.00
2022-11-30T05:29:53.595Z,12.00
2022-11-30T05:32:20.483Z,5.00
2022-11-30T05:34:51.012Z,7.67
2022-11-30T05:37:19.637Z,11.00
2022-11-30T05:39:46.603Z,11.00
2022-11-30T05:42:13.505Z,5.67
2022-11-30T05:44:40.430Z,8.00
2022-11-30T05:47:07.436Z,10.33
2022-11-30T05:49:34.382Z,15.00
2022-11-30T05:52:01.279Z,12.00
2022-11-30T05:54:28.230Z,13.33
2022-11-30T05:56:55.501Z,15.67
2022-11-30T05:59:23.117Z,14.67
2022-11-30T06:01:52.782Z,15.00
2022-11-30T06:04:20.514Z,16.33
2022-11-30T06:06:47.923Z,18.00
2022-11-30T06:09:14.866Z,12.00
2022-11-30T06:11:41.734Z,8.00
2022-11-30T06:14:08.655Z,9.00
2022-11-30T06:16:35.588Z,54.25
2022-11-30T06:19:02.512Z,32.00
2022-11-30T06:21:29.414Z,25.00
2022-11-30T06:23:57.174Z,20.33
2022-11-30T06:26:24.040Z,7.67
2022-11-30T06:28:51.016Z,14.67
2022-11-30T06:31:17.974Z,21.00
2022-11-30T06:33:44.947Z,11.67
2022-11-30T06:36:11.874Z,9.67
2022-11-30T06:38:38.794Z,14.67
2022-11-30T06:41:09.726Z,11.00
2022-11-30T06:43:39.004Z,14.33
2022-11-30T06:46:07.222Z,14.33
2022-11-30T06:48:35.818Z,14.00
2022-11-30T06:51:06.644Z,10.00
2022-11-30T06:53:33.599Z,14.00
2022-11-30T06:56:09.629Z,16.33
2022-11-30T06:58:38.753Z,12.67
2022-11-30T07:01:07.427Z,15.33
2022-11-30T07:03:34.467Z,13.33
2022-11-30T07:06:01.344Z,14.00
2022-11-30T07:08:28.332Z,12.67
2022-11-30T07:10:55.196Z,17.33
2022-11-30T07:13:22.196Z,15.67
2022-11-30T07:15:49.064Z,14.00
2022-11-30T07:18:16.011Z,6.33
2022-11-30T07:20:43.068Z,12.67
2022-11-30T07:23:28.768Z,8.67
2022-11-30T07:26:12.567Z,17.00
2022-11-30T07:28:42.173Z,12.00
2022-11-30T07:31:27.024Z,12.00
2022-11-30T07:33:53.993Z,12.67
2022-11-30T07:36:23.908Z,11.00
2022-11-30T07:38:50.764Z,11.33
2022-11-30T07:41:18.013Z,18.67
2022-11-30T07:43:45.183Z,19.33
2022-11-30T07:46:13.748Z,14.00
2022-11-30T07:48:40.934Z,13.33
2022-11-30T07:51:12.504Z,15.00
2022-11-30T07:53:41.325Z,14.00
2022-11-30T07:56:11.624Z,14.00
2022-11-30T07:58:39.626Z,15.67
2022-11-30T08:01:09.750Z,16.33
2022-11-30T08:03:37.479Z,14.67
2022-11-30T08:06:10.090Z,18.67
2022-11-30T08:08:39.445Z,11.00
2022-11-30T08:11:08.112Z,8.00
2022-11-30T08:13:35.428Z,10.67
2022-11-30T08:16:03.916Z,7.33
2022-11-30T08:18:30.852Z,7.67
2022-11-30T08:21:06.239Z,8.00
2022-11-30T08:23:36.547Z,11.00
2022-11-30T08:26:06.611Z,16.00
2022-11-30T08:28:36.361Z,14.67
2022-11-30T08:31:24.892Z,15.00
2022-11-30T08:33:56.725Z,8.33
2022-11-30T08:36:25.800Z,12.33
2022-11-30T08:38:52.779Z,12.00
2022-11-30T08:41:21.723Z,11.33
2022-11-30T08:43:49.727Z,12.67
2022-11-30T08:49:21.450Z,14.33
2022-11-30T08:52:16.446Z,18.33
2022-11-30T08:57:33.727Z,14.67
2022-11-30T09:00:00.613Z,22.00
2022-11-30T09:02:27.721Z,25.67
2022-11-30T09:04:54.660Z,9.00
2022-11-30T09:07:21.686Z,17.33
2022-11-30T09:09:48.704Z,19.00
2022-11-30T09:12:15.700Z,19.67
2022-11-30T09:14:42.904Z,18.33
2022-11-30T09:17:09.835Z,17.33
2022-11-30T09:19:36.877Z,19.33
2022-11-30T09:22:03.981Z,11.67
2022-11-30T09:24:30.904Z,11.00
2022-11-30T09:26:58.024Z,10.33
2022-11-30T09:29:25.046Z,12.00
2022-11-30T09:31:51.984Z,11.00
2022-11-30T09:34:18.953Z,11.00
2022-11-30T09:36:45.937Z,13.67
2022-11-30T09:39:13.268Z,11.00
2022-11-30T09:41:54.159Z,11.67
2022-11-30T09:44:48.254Z,11.00
2022-11-30T09:47:57.722Z,12.25
2022-11-30T09:50:28.335Z,9.67
2022-11-30T09:53:06.665Z,9.00
2022-11-30T09:55:40.185Z,13.33
2022-11-30T09:58:07.937Z,14.00
2022-11-30T10:00:37.154Z,16.00
2022-11-30T10:03:06.549Z,16.00
2022-11-30T10:06:11.477Z,15.33
2022-11-30T10:09:17.226Z,13.67
2022-11-30T10:11:58.410Z,15.67
2022-11-30T10:14:43.084Z,15.33
2022-11-30T10:17:45.331Z,15.33
2022-11-30T10:20:31.641Z,15.33
2022-11-30T10:23:31.632Z,17.00
2022-11-30T10:25:58.577Z,13.00
2022-11-30T10:28:48.971Z,18.67
2022-11-30T10:31:17.382Z,13.00
2022-11-30T10:33:52.649Z,8.67
2022-11-30T10:36:37.386Z,15.33
2022-11-30T10:39:28.403Z,9.67
2022-11-30T10:42:12.626Z,6.00
2022-11-30T10:44:43.283Z,12.00
2022-11-30T10:47:24.532Z,10.00
2022-11-30T10:49:53.076Z,12.33
2022-11-30T10:52:28.016Z,12.00
2022-11-30T10:55:02.211Z,8.33
2022-11-30T10:57:32.589Z,12.67
2022-11-30T11:00:02.719Z,10.67
2022-11-30T11:02:40.480Z,16.00
2022-11-30T11:05:18.729Z,11.33
2022-11-30T11:08:05.760Z,9.00
2022-11-30T11:10:49.953Z,14.33
2022-11-30T11:13:19.470Z,17.00
2022-11-30T11:16:00.899Z,15.33
2022-11-30T11:18:30.458Z,10.67
2022-11-30T11:21:19.283Z,14.33
2022-11-30T11:23:50.239Z,12.67
2022-11-30T11:26:23.837Z,13.00
2022-11-30T11:28:53.367Z,8.00
2022-11-30T11:31:33.760Z,12.67
2022-11-30T11:34:00.891Z,13.67
2022-11-30T11:36:31.103Z,11.67
2022-11-30T11:38:59.832Z,12.33
2022-11-30T11:41:28.558Z,8.00
2022-11-30T11:44:06.519Z,14.33
2022-11-30T11:46:36.781Z,12.00
2022-11-30T11:49:06.793Z,12.33
2022-11-30T11:51:37.100Z,13.67
2022-11-30T11:54:07.197Z,12.00
2022-11-30T11:56:36.955Z,9.00
2022-11-30T11:59:34.546Z,9.00
2022-11-30T12:02:44.207Z,12.00
2022-11-30T12:05:37.175Z,16.00
2022-11-30T12:08:28.402Z,13.67
2022-11-30T12:11:25.964Z,14.33
2022-11-30T12:13:54.009Z,9.67
2022-11-30T12:16:26.656Z,13.00
2022-11-30T12:19:19.186Z,12.33
2022-11-30T12:22:07.729Z,15.00
2022-11-30T12:24:43.584Z,15.00
2022-11-30T12:27:37.097Z,13.33
2022-11-30T12:30:16.075Z,15.67
2022-11-30T12:33:07.545Z,17.00
2022-11-30T12:35:45.868Z,17.00
2022-11-30T12:38:50.386Z,15.00
2022-11-30T12:41:56.147Z,15.00
2022-11-30T12:44:42.125Z,15.33
2022-11-30T12:47:37.152Z,9.33
2022-11-30T12:50:41.006Z,11.67
2022-11-30T12:53:14.109Z,15.67
2022-11-30T12:56:01.317Z,13.00
2022-11-30T12:59:07.164Z,12.00
2022-11-30T13:01:59.655Z,12.67
2022-11-30T13:04:46.505Z,12.00
2022-11-30T13:07:32.114Z,15.00
2022-11-30T13:10:06.752Z,16.00
2022-11-30T13:12:39.008Z,15.00
2022-11-30T13:15:15.807Z,16.00
2022-11-30T13:17:44.156Z,15.00
2022-11-30T13:20:39.416Z,15.00
2022-11-30T13:23:15.269Z,12.00
2022-11-30T13:26:21.260Z,12.67
2022-11-30T13:29:04.736Z,12.00
2022-11-30T13:32:04.553Z,9.00
2022-11-30T13:34:32.993Z,13.33
2022-11-30T13:37:06.309Z,13.00
2022-11-30T13:39:51.523Z,12.00
2022-11-30T13:42:31.270Z,6.67
2022-11-30T13:45:18.253Z,12.00
2022-11-30T13:47:54.724Z,9.67
2022-11-30T13:50:34.838Z,14.67
2022-11-30T13:53:27.154Z,13.33
2022-11-30T13:56:09.245Z,14.33
2022-11-30T13:58:36.234Z,10.33
2022-11-30T14:01:21.733Z,12.00
2022-11-30T14:04:21.248Z,11.00
2022-11-30T14:07:00.824Z,12.00
2022-11-30T14:09:42.960Z,15.00
2022-11-30T14:12:40.343Z,13.33
2022-11-30T14:15:34.539Z,9.67
2022-11-30T14:18:22.010Z,13.33
2022-11-30T14:21:01.160Z,13.33
2022-11-30T14:23:40.371Z,17.00
2022-11-30T14:26:11.551Z,14.00
2022-11-30T14:28:56.729Z,11.00
2022-11-30T14:31:26.963Z,9.33
2022-11-30T14:33:59.089Z,16.00
2022-11-30T14:36:34.720Z,17.00
2022-11-30T14:39:01.983Z,11.67
2022-11-30T14:41:30.678Z,11.33
2022-11-30T14:44:12.837Z,14.00
2022-11-30T14:46:40.739Z,14.00
2022-11-30T14:49:17.442Z,18.33
2022-11-30T14:51:49.708Z,18.33
2022-11-30T14:54:25.571Z,19.00
2022-11-30T14:56:59.269Z,20.67
2022-11-30T14:59:48.061Z,20.67
2022-11-30T15:02:26.914Z,17.67
2022-11-30T15:04:55.611Z,16.67
2022-11-30T15:07:24.185Z,10.33
2022-11-30T15:09:57.765Z,15.00
2022-11-30T15:12:25.778Z,15.00
2022-11-30T15:15:11.926Z,14.67
2022-11-30T15:17:49.201Z,14.00
2022-11-30T15:20:26.152Z,18.00
2022-11-30T15:22:55.116Z,24.00
2022-11-30T15:25:25.350Z,15.00
2022-11-30T15:27:52.657Z,15.67
2022-11-30T15:30:19.895Z,18.67
2022-11-30T15:32:52.937Z,21.33
2022-11-30T15:35:23.800Z,27.00
2022-11-30T15:37:51.269Z,22.33
2022-11-30T15:40:35.034Z,21.00
2022-11-30T15:43:02.480Z,18.67
2022-11-30T15:45:39.001Z,21.67
2022-11-30T15:48:38.331Z,21.00
2022-11-30T15:51:06.780Z,8.67
2022-11-30T15:53:49.393Z,17.67
2022-11-30T15:56:28.165Z,22.00
2022-11-30T15:59:22.844Z,17.00
2022-11-30T16:02:02.824Z,20.33
2022-11-30T16:04:58.835Z,18.00
2022-11-30T16:07:30.181Z,21.00
2022-11-30T16:10:04.948Z,14.67
2022-11-30T16:12:31.888Z,19.00
2022-11-30T16:14:58.885Z,20.67
2022-11-30T16:17:27.653Z,24.00
2022-11-30T16:19:54.568Z,25.67
2022-11-30T16:22:21.487Z,42.00
2022-11-30T16:24:48.383Z,8.33
2022-11-30T16:27:20.407Z,32.67
2022-11-30T16:29:52.156Z,22.67
2022-11-30T16:32:19.681Z,23.67
2022-11-30T16:34:48.373Z,18.67
2022-11-30T16:37:15.310Z,18.00
2022-11-30T16:39:42.282Z,16.33
2022-11-30T16:42:12.877Z,19.00
2022-11-30T16:44:39.827Z,22.33
2022-11-30T16:47:06.717Z,26.33
2022-11-30T16:49:33.676Z,36.33
2022-11-30T16:52:00.561Z,26.67
2022-11-30T16:54:27.606Z,22.00
2022-11-30T16:56:54.514Z,19.00
2022-11-30T16:59:21.410Z,23.00
2022-11-30T17:01:53.574Z,19.33
2022-11-30T17:04:26.230Z,12.00
2022-11-30T17:07:00.489Z,19.67
2022-11-30T17:09:30.575Z,24.33
2022-11-30T17:11:57.604Z,19.33
2022-11-30T17:14:24.549Z,19.00
2022-11-30T17:16:51.525Z,31.67
2022-11-30T17:19:18.476Z,33.00
2022-11-30T17:21:45.494Z,20.00
2022-11-30T17:24:13.349Z,24.00
2022-11-30T17:26:40.710Z,19.00
2022-11-30T17:29:07.638Z,19.00
2022-11-30T17:31:34.844Z,24.00
2022-11-30T17:34:01.939Z,25.00
2022-11-30T17:36:29.597Z,27.33
2022-11-30T17:38:56.970Z,9.67
2022-11-30T17:41:24.111Z,23.67
2022-11-30T17:43:52.301Z,25.67
2022-11-30T17:46:19.589Z,13.00
2022-11-30T17:48:46.861Z,15.00
2022-11-30T17:51:14.361Z,15.00
2022-11-30T17:53:42.990Z,18.33
2022-11-30T17:56:12.654Z,18.00
2022-11-30T17:58:43.787Z,22.33
2022-11-30T18:01:20.459Z,21.00
2022-11-30T18:03:47.906Z,14.33
2022-11-30T18:06:15.673Z,22.00
2022-11-30T18:08:43.169Z,26.67
2022-11-30T18:11:11.882Z,21.00
2022-11-30T18:13:39.741Z,19.00
2022-11-30T18:16:27.933Z,18.00
2022-11-30T18:18:57.579Z,19.00
2022-11-30T18:21:26.828Z,21.33
2022-11-30T18:23:54.036Z,23.00
2022-11-30T18:26:24.312Z,19.67
2022-11-30T18:28:53.373Z,21.67
2022-11-30T18:31:20.532Z,25.00
2022-11-30T18:33:47.714Z,24.67
2022-11-30T18:36:14.964Z,25.00
2022-11-30T18:38:42.032Z,18.00
2022-11-30T18:41:08.940Z,21.67
2022-11-30T18:43:38.428Z,18.00
2022-11-30T18:46:08.580Z,12.00
2022-11-30T18:48:35.989Z,16.00
2022-11-30T18:51:14.368Z,18.33
2022-11-30T18:53:41.858Z,19.00
2022-11-30T18:56:14.740Z,21.00
2022-11-30T18:58:42.685Z,18.00
2022-11-30T19:01:12.602Z,29.00
2022-11-30T19:03:40.410Z,25.00
2022-11-30T19:06:09.071Z,19.33
2022-11-30T19:08:37.524Z,20.33
2022-11-30T19:11:09.659Z,19.67
2022-11-30T19:13:37.750Z,21.00
2022-11-30T19:16:08.816Z,24.33
2022-11-30T19:18:37.471Z,21.00
2022-11-30T19:21:10.624Z,16.67
2022-11-30T19:23:39.115Z,18.00
2022-11-30T19:26:08.203Z,19.00
2022-11-30T19:28:37.273Z,19.67
2022-11-30T19:31:23.959Z,19.67
2022-11-30T19:33:54.629Z,13.33
2022-11-30T19:36:24.987Z,18.67
2022-11-30T19:38:52.748Z,19.00
2022-11-30T19:41:21.764Z,17.67
2022-11-30T19:44:02.752Z,15.00
2022-11-30T19:46:32.377Z,15.00
2022-11-30T19:49:02.016Z,12.00
2022-11-30T19:51:30.870Z,14.33
2022-11-30T19:54:01.575Z,12.00
2022-11-30T19:56:31.741Z,15.00
2022-11-30T19:59:04.582Z,9.00
2022-11-30T20:01:33.745Z,18.00
2022-11-30T20:04:01.687Z,15.67
2022-11-30T20:06:33.170Z,15.00
2022-11-30T20:09:02.795Z,11.67
2022-11-30T20:11:29.937Z,17.33
2022-11-30T20:13:56.968Z,10.33
2022-11-30T20:16:24.358Z,15.00
2022-11-30T20:18:55.876Z,14.67
2022-11-30T20:21:26.542Z,9.67
2022-11-30T20:23:55.299Z,14.33
2022-11-30T20:26:30.600Z,13.67
2022-11-30T20:28:59.141Z,12.00
2022-11-30T20:31:27.964Z,12.33
2022-11-30T20:33:55.138Z,13.33
2022-11-30T20:36:24.747Z,16.33
2022-11-30T20:38:51.914Z,13.00
2022-11-30T20:41:21.523Z,12.00
2022-11-30T20:43:49.092Z,13.67
2022-11-30T20:46:21.911Z,14.00
2022-11-30T20:48:49.313Z,18.00
2022-11-30T20:51:30.714Z,16.00
2022-11-30T20:54:07.191Z,13.33
2022-11-30T20:56:39.482Z,18.00
2022-11-30T20:59:13.724Z,20.33
2022-11-30T21:01:44.384Z,27.00
2022-11-30T21:04:12.858Z,17.67
2022-11-30T21:06:40.803Z,22.33
2022-11-30T21:09:07.699Z,12.33
2022-11-30T21:11:34.647Z,15.33
2022-11-30T21:14:01.679Z,15.33
2022-11-30T21:16:29.973Z,12.00
2022-11-30T21:18:59.330Z,15.67
2022-11-30T21:21:30.762Z,17.33
2022-11-30T21:24:00.342Z,16.67
2022-11-30T21:26:30.233Z,14.00
2022-11-30T21:29:04.675Z,27.00
2022-11-30T21:31:32.196Z,42.33
2022-11-30T21:34:00.642Z,51.33
2022-11-30T21:36:27.979Z,48.33
2022-11-30T21:39:01.084Z,34.33
2022-11-30T21:41:31.272Z,29.00
2022-11-30T21:43:59.453Z,29.67
2022-11-30T21:46:26.441Z,5.00
2022-11-30T21:48:53.552Z,20.33
2022-11-30T21:51:23.750Z,18.00
2022-11-30T21:53:54.683Z,15.67
2022-11-30T21:56:29.746Z,15.00
2022-11-30T21:58:57.231Z,19.67
2022-11-30T22:01:27.133Z,13.67
2022-11-30T22:03:56.071Z,22.00
2022-11-30T22:06:24.720Z,26.33
2022-11-30T22:08:52.128Z,26.00
2022-11-30T22:11:21.327Z,30.33
2022-11-30T22:13:53.264Z,34.67
2022-11-30T22:16:21.184Z,32.00
2022-11-30T22:18:48.674Z,27.33
2022-11-30T22:21:18.041Z,26.00
2022-11-30T22:23:47.543Z,21.67
2022-11-30T22:26:15.956Z,16.00
2022-11-30T22:28:45.350Z,14.33
2022-11-30T22:31:14.625Z,14.33
2022-11-30T22:33:43.243Z,12.67
2022-11-30T22:36:31.410Z,12.67
2022-11-30T22:39:00.946Z,13.33
2022-11-30T22:41:28.545Z,9.33
2022-11-30T22:43:57.189Z,12.00
2022-11-30T22:46:25.238Z,9.00
2022-11-30T22:48:53.025Z,8.67
2022-11-30T22:51:24.890Z,8.33
2022-11-30T22:53:52.958Z,9.00
2022-11-30T22:56:22.367Z,5.33
2022-11-30T22:58:51.020Z,12.00
2022-11-30T23:01:20.845Z,9.00
2022-11-30T23:03:49.349Z,9.67
2022-11-30T23:06:17.907Z,9.00
2022-11-30T23:08:46.199Z,11.00
2022-11-30T23:11:16.168Z,5.67
2022-11-30T23:13:43.675Z,12.00
2022-11-30T23:16:13.185Z,10.33
2022-11-30T23:18:49.570Z,8.00
2022-11-30T23:21:25.216Z,9.00
2022-11-30T23:23:53.068Z,11.00
2022-11-30T23:26:22.606Z,8.00
2022-11-30T23:28:51.519Z,18.00
2022-11-30T23:31:32.680Z,15.00
2022-11-30T23:34:02.998Z,11.00
2022-11-30T23:36:29.852Z,14.00
2022-11-30T23:38:59.472Z,16.33
2022-11-30T23:41:27.314Z,18.33
2022-11-30T23:43:54.616Z,16.00
2022-11-30T23:46:22.163Z,12.67
2022-11-30T23:48:49.430Z,9.33
2022-11-30T23:51:16.437Z,11.00
2022-11-30T23:53:43.313Z,13.33
2022-11-30T23:56:14.052Z,9.00
2022-11-30T23:58:41.231Z,10.33
